Time;durP1;ratioP1;P1;durP2;ratioP2;P2;SDS_P1;SDS_P2;PMS_P1;PMS_P2;Temp;Humidity;BMP_temperature;BMP_pressure;BME280_temperature;BME280_humidity;BME280_pressure;Samples;Min_cycle;Max_cycle;Signal;HPM_P1;HPM_P2
2022/03/16 00:01:38;;;;;;;1.93;1.83;;;18.60;38.00;;;;;;5000081;28;20251;-63
2022/03/16 00:04:04;;;;;;;1.80;1.70;;;18.60;38.00;;;;;;5006191;28;20286;-62
2022/03/16 00:06:30;;;;;;;2.00;1.90;;;18.60;38.00;;;;;;5005471;28;20220;-62
2022/03/16 00:08:55;;;;;;;1.73;1.63;;;18.60;38.00;;;;;;5003335;28;20582;-63
2022/03/16 00:11:21;;;;;;;2.03;1.93;;;18.60;38.00;;;;;;4998944;28;20231;-63
2022/03/16 00:13:46;;;;;;;1.90;1.80;;;18.60;38.00;;;;;;4998227;28;20226;-64
2022/03/16 00:16:12;;;;;;;1.93;1.83;;;18.60;38.00;;;;;;5006392;28;20275;-62
2022/03/16 00:18:37;;;;;;;1.70;1.60;;;18.60;38.00;;;;;;4997571;28;20231;-63
2022/03/16 00:21:03;;;;;;;1.93;1.83;;;18.60;38.00;;;;;;5002408;28;20371;-62
2022/03/16 00:23:28;;;;;;;1.90;1.80;;;18.60;38.00;;;;;;5003067;28;20223;-64
2022/03/16 00:25:54;;;;;;;1.97;1.80;;;18.70;38.10;;;;;;4999314;28;20239;-63
2022/03/16 00:28:20;;;;;;;1.90;1.80;;;18.60;38.00;;;;;;4996740;28;20235;-63
2022/03/16 00:30:45;;;;;;;1.90;1.80;;;18.60;38.00;;;;;;5003803;28;20725;-62
2022/03/16 00:33:11;;;;;;;2.00;1.90;;;18.60;38.00;;;;;;4994826;28;20224;-63
2022/03/16 00:35:37;;;;;;;1.80;1.70;;;18.60;38.00;;;;;;4999625;28;20239;-63
2022/03/16 00:38:04;;;;;;;2.30;2.10;;;18.60;38.00;;;;;;5001311;28;20254;-63
2022/03/16 00:40:31;;;;;;;2.17;1.87;;;18.60;38.00;;;;;;5004355;28;20464;-62
2022/03/16 00:42:57;;;;;;;1.80;1.70;;;18.60;38.00;;;;;;5001021;28;20462;-63
2022/03/16 00:45:23;;;;;;;2.10;2.00;;;18.60;38.00;;;;;;5006470;28;20821;-63
2022/03/16 00:47:49;;;;;;;2.10;2.00;;;18.60;38.00;;;;;;4997485;28;20231;-64
2022/03/16 00:50:15;;;;;;;2.03;1.93;;;18.60;38.00;;;;;;4996971;28;20461;-62
2022/03/16 00:52:40;;;;;;;2.00;1.90;;;18.60;38.00;;;;;;5002589;28;20248;-63
2022/03/16 00:55:06;;;;;;;1.90;1.80;;;18.60;38.00;;;;;;4995683;28;20319;-63
2022/03/16 00:57:32;;;;;;;1.90;1.80;;;18.60;38.00;;;;;;4978010;28;20686;-64
2022/03/16 01:00:00;;;;;;;2.30;2.20;;;18.60;38.00;;;;;;4998262;28;20589;-63
2022/03/16 01:02:26;;;;;;;1.73;1.63;;;18.60;38.00;;;;;;4999010;28;20231;-63
2022/03/16 01:04:52;;;;;;;2.13;1.93;;;18.60;38.00;;;;;;4999127;28;20458;-63
2022/03/16 01:07:17;;;;;;;1.77;1.67;;;18.60;38.00;;;;;;4999658;28;20303;-64
2022/03/16 01:09:43;;;;;;;1.70;1.60;;;18.60;38.00;;;;;;4996942;28;20320;-63
2022/03/16 01:12:09;;;;;;;1.70;1.60;;;18.60;38.00;;;;;;4997831;28;20231;-63
2022/03/16 01:14:35;;;;;;;1.93;1.83;;;18.60;38.00;;;;;;4997807;28;20232;-63
2022/03/16 01:17:01;;;;;;;1.73;1.63;;;18.60;38.00;;;;;;4998255;28;20965;-64
2022/03/16 01:19:28;;;;;;;2.20;2.10;;;18.60;38.00;;;;;;5004635;28;20460;-63
2022/03/16 01:21:53;;;;;;;1.93;1.83;;;18.60;38.00;;;;;;5001502;28;20239;-63
2022/03/16 01:24:19;;;;;;;1.70;1.60;;;18.60;38.00;;;;;;4998997;28;20429;-63
2022/03/16 01:26:45;;;;;;;2.07;1.97;;;18.60;38.00;;;;;;4997491;28;20913;-63
2022/03/16 01:29:10;;;;;;;1.70;1.60;;;18.60;38.00;;;;;;4999123;28;20311;-64
2022/03/16 01:31:36;;;;;;;2.73;2.10;;;18.60;38.00;;;;;;4998013;28;20220;-63
2022/03/16 01:34:02;;;;;;;2.00;1.90;;;18.60;38.00;;;;;;5001087;28;20223;-63
2022/03/16 01:36:28;;;;;;;1.80;1.70;;;18.60;38.00;;;;;;4996905;28;20229;-63
2022/03/16 01:38:54;;;;;;;1.73;1.63;;;18.60;38.00;;;;;;5006499;28;20506;-63
2022/03/16 01:41:19;;;;;;;1.80;1.70;;;18.60;38.20;;;;;;4996759;28;20673;-63
2022/03/16 01:43:45;;;;;;;2.10;2.00;;;18.60;38.00;;;;;;5000737;28;20236;-62
2022/03/16 01:46:11;;;;;;;2.17;2.07;;;18.60;38.00;;;;;;4999984;28;20250;-63
2022/03/16 01:48:36;;;;;;;2.20;2.03;;;18.60;38.00;;;;;;4998690;28;20232;-63
2022/03/16 01:51:03;;;;;;;1.67;1.57;;;18.60;38.00;;;;;;4997178;28;20232;-64
2022/03/16 01:53:29;;;;;;;1.73;1.63;;;18.60;38.00;;;;;;4999572;28;20315;-63
2022/03/16 01:55:54;;;;;;;2.00;1.80;;;18.60;38.00;;;;;;4999217;28;20531;-63
2022/03/16 01:58:20;;;;;;;2.27;1.80;;;18.60;38.00;;;;;;5000328;28;20224;-64
2022/03/16 02:00:46;;;;;;;2.17;2.07;;;18.60;38.00;;;;;;5001016;28;20231;-63
2022/03/16 02:03:11;;;;;;;1.90;1.80;;;18.60;38.00;;;;;;4996882;28;20220;-63
2022/03/16 02:05:38;;;;;;;2.10;2.00;;;18.60;38.00;;;;;;4997723;28;20220;-63
2022/03/16 02:08:05;;;;;;;1.90;1.80;;;18.60;38.00;;;;;;4999327;28;20216;-63
2022/03/16 02:10:31;;;;;;;2.20;2.00;;;18.60;38.00;;;;;;4996567;28;20827;-63
2022/03/16 02:12:57;;;;;;;1.90;1.80;;;18.60;38.20;;;;;;4996653;28;20508;-64
2022/03/16 02:15:23;;;;;;;2.00;1.90;;;18.60;38.00;;;;;;5004448;28;20421;-63
2022/03/16 02:17:50;;;;;;;1.80;1.70;;;18.60;38.00;;;;;;4994687;28;20453;-63
2022/03/16 02:20:17;;;;;;;1.93;1.83;;;18.60;38.00;;;;;;4997708;28;20449;-63
2022/03/16 02:23:07;;;;;;;1.80;1.70;;;18.60;38.00;;;;;;5000671;28;20789;-63
2022/03/16 02:25:46;;;;;;;1.87;1.77;;;18.60;38.00;;;;;;4993898;28;20496;-63
2022/03/16 02:28:12;;;;;;;4.23;1.97;;;18.60;38.00;;;;;;5003245;28;20435;-63
2022/03/16 02:30:37;;;;;;;1.70;1.60;;;18.60;38.00;;;;;;4996890;28;20455;-63
2022/03/16 02:33:03;;;;;;;1.80;1.70;;;18.60;38.00;;;;;;5000330;28;20686;-63
2022/03/16 02:35:31;;;;;;;2.00;1.90;;;18.60;38.00;;;;;;4996749;28;20228;-63
2022/03/16 02:37:58;;;;;;;1.80;1.70;;;18.60;38.00;;;;;;4999289;28;20216;-63
2022/03/16 02:40:24;;;;;;;1.73;1.63;;;18.60;38.00;;;;;;5000635;28;20452;-63
2022/03/16 02:42:50;;;;;;;1.80;1.70;;;18.60;38.00;;;;;;5001857;28;20444;-63
2022/03/16 02:45:16;;;;;;;2.00;1.90;;;18.60;38.00;;;;;;5002201;28;20419;-63
2022/03/16 02:47:43;;;;;;;1.90;1.80;;;18.60;38.00;;;;;;4999126;28;20464;-63
2022/03/16 02:50:10;;;;;;;2.00;1.90;;;18.60;38.00;;;;;;5001851;28;20821;-63
2022/03/16 02:52:36;;;;;;;1.77;1.67;;;18.60;38.00;;;;;;5004234;28;20771;-62
2022/03/16 02:55:04;;;;;;;1.80;1.70;;;18.60;38.00;;;;;;4995312;28;20518;-63
2022/03/16 02:57:29;;;;;;;1.97;1.70;;;18.60;38.00;;;;;;4997430;28;20450;-63
2022/03/16 02:59:55;;;;;;;2.03;1.93;;;18.60;38.00;;;;;;4996835;28;20508;-64
2022/03/16 03:02:21;;;;;;;1.60;1.50;;;18.50;37.90;;;;;;4999110;28;20227;-64
2022/03/16 03:04:47;;;;;;;2.00;1.90;;;18.60;38.00;;;;;;4998693;28;20503;-63
2022/03/16 03:07:12;;;;;;;1.70;1.60;;;18.50;37.90;;;;;;4999673;28;20219;-63
2022/03/16 03:09:38;;;;;;;2.10;2.00;;;18.60;38.00;;;;;;4998993;28;20221;-63
2022/03/16 03:12:04;;;;;;;1.97;1.87;;;18.50;37.90;;;;;;5004699;28;20220;-63
2022/03/16 03:14:31;;;;;;;1.70;1.60;;;18.50;37.90;;;;;;4998366;28;20248;-63
2022/03/16 03:16:56;;;;;;;2.00;1.90;;;18.50;37.90;;;;;;4995256;28;20438;-64
2022/03/16 03:19:22;;;;;;;2.43;2.33;;;18.60;38.00;;;;;;4998612;28;20458;-64
2022/03/16 03:21:49;;;;;;;1.97;1.87;;;18.50;38.00;;;;;;4997619;28;20346;-63
2022/03/16 03:24:15;;;;;;;1.83;1.73;;;18.60;38.00;;;;;;5003022;28;20215;-63
2022/03/16 03:26:40;;;;;;;2.40;2.20;;;18.50;37.90;;;;;;4998494;28;20789;-63
2022/03/16 03:29:06;;;;;;;2.17;2.07;;;18.60;38.00;;;;;;5000249;28;20436;-64
2022/03/16 03:31:32;;;;;;;1.80;1.70;;;18.60;38.00;;;;;;4996487;28;20224;-63
2022/03/16 03:33:57;;;;;;;1.70;1.60;;;18.50;37.90;;;;;;5000849;28;20226;-63
2022/03/16 03:36:23;;;;;;;1.90;1.80;;;18.50;37.90;;;;;;4979000;28;20227;-63
2022/03/16 03:38:49;;;;;;;2.00;1.90;;;18.50;37.90;;;;;;5003846;28;20698;-64
2022/03/16 03:41:14;;;;;;;2.00;1.90;;;18.50;37.90;;;;;;5001590;28;20236;-64
2022/03/16 03:43:40;;;;;;;1.80;1.70;;;18.50;37.90;;;;;;4998920;28;20223;-64
2022/03/16 03:46:06;;;;;;;1.80;1.70;;;18.50;38.60;;;;;;5001571;28;20231;-63
2022/03/16 03:48:32;;;;;;;1.60;1.50;;;18.50;37.90;;;;;;5001943;28;20235;-63
2022/03/16 03:50:58;;;;;;;1.90;1.80;;;18.50;37.90;;;;;;4997547;28;20627;-63
2022/03/16 03:53:24;;;;;;;2.30;1.90;;;18.50;37.90;;;;;;4997937;28;20561;-63
2022/03/16 03:55:50;;;;;;;1.67;1.57;;;18.50;37.90;;;;;;5001898;28;20481;-63
2022/03/16 03:58:15;;;;;;;1.90;1.80;;;18.50;37.90;;;;;;5000106;28;20227;-63
2022/03/16 04:00:41;;;;;;;1.70;1.60;;;18.50;37.90;;;;;;4999349;28;20751;-64
2022/03/16 04:03:06;;;;;;;1.80;1.70;;;18.50;38.00;;;;;;4994517;28;20283;-62
2022/03/16 04:05:32;;;;;;;2.17;2.07;;;18.60;38.00;;;;;;4998590;28;20223;-63
2022/03/16 04:07:58;;;;;;;1.70;1.60;;;18.50;37.90;;;;;;4996449;28;20853;-63
2022/03/16 04:10:24;;;;;;;1.70;1.60;;;18.50;37.90;;;;;;4996184;28;20275;-63
2022/03/16 04:12:50;;;;;;;1.70;1.60;;;18.50;38.00;;;;;;5002481;28;20480;-63
2022/03/16 04:15:18;;;;;;;1.70;1.60;;;18.50;37.90;;;;;;5002697;28;20247;-63
2022/03/16 04:17:43;;;;;;;1.80;1.70;;;18.50;37.90;;;;;;4995827;28;20230;-63
2022/03/16 04:20:09;;;;;;;1.70;1.60;;;18.60;38.00;;;;;;5000203;28;20795;-63
2022/03/16 04:22:36;;;;;;;2.10;2.00;;;18.50;37.90;;;;;;5000044;28;20255;-63
2022/03/16 04:25:01;;;;;;;1.60;1.50;;;18.50;37.90;;;;;;5001854;28;20224;-63
2022/03/16 04:27:27;;;;;;;1.67;1.57;;;18.50;37.90;;;;;;4999082;28;20514;-63
2022/03/16 04:29:53;;;;;;;1.70;1.60;;;18.50;37.90;;;;;;5006402;28;20224;-63
2022/03/16 04:32:19;;;;;;;1.83;1.73;;;18.50;37.90;;;;;;5006751;28;20207;-63
2022/03/16 04:34:44;;;;;;;1.60;1.50;;;18.50;37.90;;;;;;4997769;28;20963;-64
2022/03/16 04:37:10;;;;;;;1.60;1.50;;;18.60;38.00;;;;;;5003567;28;20643;-63
2022/03/16 04:39:36;;;;;;;1.60;1.50;;;18.50;37.90;;;;;;5001264;28;20247;-63
2022/03/16 04:42:02;;;;;;;1.80;1.70;;;18.50;37.90;;;;;;5001549;28;20252;-63
2022/03/16 04:44:27;;;;;;;1.83;1.73;;;18.50;37.90;;;;;;4998986;28;20224;-62
2022/03/16 04:46:53;;;;;;;1.70;1.60;;;18.50;37.90;;;;;;4998131;28;20787;-63
2022/03/16 04:49:18;;;;;;;1.53;1.43;;;18.50;37.90;;;;;;5004386;28;20227;-63
2022/03/16 04:51:44;;;;;;;1.40;1.30;;;18.50;37.90;;;;;;5005792;28;20240;-63
2022/03/16 04:54:09;;;;;;;1.77;1.67;;;18.50;37.90;;;;;;5000187;28;20232;-63
2022/03/16 04:56:36;;;;;;;1.80;1.70;;;18.50;37.90;;;;;;5001835;28;20227;-63
2022/03/16 04:59:03;;;;;;;2.10;2.00;;;18.50;37.90;;;;;;5004154;28;20215;-63
2022/03/16 05:01:29;;;;;;;1.73;1.63;;;18.60;38.00;;;;;;4999308;28;20540;-64
2022/03/16 05:03:54;;;;;;;1.97;1.87;;;18.50;37.90;;;;;;4999494;28;20871;-63
2022/03/16 05:06:20;;;;;;;1.70;1.60;;;18.50;37.90;;;;;;5003974;28;20715;-63
2022/03/16 05:08:47;;;;;;;1.70;1.60;;;18.50;37.90;;;;;;5001860;28;20227;-63
2022/03/16 05:11:14;;;;;;;1.70;1.60;;;18.50;37.90;;;;;;5002376;28;20224;-63
2022/03/16 05:13:40;;;;;;;1.90;1.80;;;18.50;37.90;;;;;;5004526;28;20428;-63
2022/03/16 05:16:07;;;;;;;1.70;1.60;;;18.50;37.80;;;;;;4996895;28;21002;-67
2022/03/16 05:18:35;;;;;;;1.87;1.77;;;18.60;37.90;;;;;;5001406;28;20897;-66
2022/03/16 05:21:03;;;;;;;1.87;1.77;;;18.60;37.90;;;;;;5001457;28;20458;-64
2022/03/16 05:23:30;;;;;;;2.10;1.57;;;18.60;37.90;;;;;;5000692;28;20504;-64
2022/03/16 05:25:56;;;;;;;1.70;1.60;;;18.60;37.90;;;;;;5003624;28;20442;-64
2022/03/16 05:28:22;;;;;;;1.50;1.40;;;18.60;37.70;;;;;;4999928;28;20847;-64
2022/03/16 05:30:47;;;;;;;1.90;1.80;;;18.60;37.70;;;;;;4996680;28;20989;-63
2022/03/16 05:33:14;;;;;;;1.77;1.67;;;18.60;37.70;;;;;;5001973;28;20429;-64
2022/03/16 05:35:41;;;;;;;1.73;1.63;;;18.60;37.70;;;;;;5000549;28;20367;-62
2022/03/16 05:38:08;;;;;;;1.70;1.60;;;18.60;37.70;;;;;;4998229;28;20453;-63
2022/03/16 05:40:34;;;;;;;1.90;1.80;;;18.60;37.70;;;;;;5003161;28;20432;-66
2022/03/16 05:43:00;;;;;;;1.73;1.63;;;18.60;37.60;;;;;;4981245;28;20457;-65
2022/03/16 05:45:26;;;;;;;1.80;1.70;;;18.60;37.60;;;;;;4978542;28;20488;-66
2022/03/16 05:47:52;;;;;;;1.50;1.40;;;18.60;37.50;;;;;;4980036;28;20455;-65
2022/03/16 05:50:18;;;;;;;1.87;1.77;;;18.60;37.60;;;;;;4987542;28;20688;-64
2022/03/16 05:52:46;;;;;;;2.50;1.50;;;18.60;37.60;;;;;;4981816;28;20306;-64
2022/03/16 05:55:13;;;;;;;2.10;1.70;;;18.60;37.50;;;;;;4982671;28;20454;-64
2022/03/16 05:57:40;;;;;;;8.27;1.87;;;18.60;37.60;;;;;;4979170;28;20455;-65
2022/03/16 06:00:07;;;;;;;2.20;2.00;;;18.60;37.40;;;;;;4974559;28;20443;-64
2022/03/16 06:02:33;;;;;;;4.10;2.30;;;18.70;37.50;;;;;;4978258;28;20519;-64
2022/03/16 06:04:58;;;;;;;3.40;2.23;;;18.70;37.60;;;;;;4976191;28;20925;-63
2022/03/16 06:07:24;;;;;;;4.57;1.80;;;18.70;37.50;;;;;;4978615;28;20248;-64
2022/03/16 06:09:49;;;;;;;2.70;1.93;;;18.70;37.50;;;;;;4979472;28;20217;-64
2022/03/16 06:12:15;;;;;;;2.43;2.00;;;18.70;37.50;;;;;;4982177;28;20236;-65
2022/03/16 06:14:40;;;;;;;5.73;1.90;;;18.70;37.50;;;;;;4981290;28;20240;-66
2022/03/16 06:17:06;;;;;;;2.33;1.93;;;18.70;37.50;;;;;;4977639;28;20213;-65
2022/03/16 06:19:31;;;;;;;2.33;1.87;;;18.70;37.50;;;;;;4981805;28;20708;-66
2022/03/16 06:21:57;;;;;;;3.77;2.07;;;18.70;37.50;;;;;;4975579;28;20721;-66
2022/03/16 06:24:23;;;;;;;6.73;2.03;;;18.70;37.50;;;;;;4974644;28;20259;-63
2022/03/16 06:26:48;;;;;;;1.90;1.70;;;18.70;37.50;;;;;;4981298;28;20228;-66
2022/03/16 06:29:14;;;;;;;2.13;1.93;;;18.70;37.40;;;;;;4975538;28;20225;-62
2022/03/16 06:31:39;;;;;;;2.53;2.03;;;18.70;37.50;;;;;;4978800;28;20739;-65
2022/03/16 06:34:05;;;;;;;1.73;1.60;;;18.70;37.50;;;;;;4979992;28;20637;-65
2022/03/16 06:36:31;;;;;;;2.03;1.83;;;18.70;37.50;;;;;;4977161;28;20227;-67
2022/03/16 06:38:57;;;;;;;1.90;1.80;;;18.70;37.40;;;;;;4976819;28;20275;-65
2022/03/16 06:41:22;;;;;;;2.17;2.00;;;18.70;37.40;;;;;;4979270;28;20232;-65
2022/03/16 06:43:48;;;;;;;1.97;1.77;;;18.70;37.40;;;;;;4980695;28;20745;-66
2022/03/16 06:46:14;;;;;;;2.73;2.53;;;18.70;37.30;;;;;;4979481;28;20313;-66
2022/03/16 06:48:40;;;;;;;2.67;2.47;;;18.70;37.40;;;;;;4980448;28;20231;-64
2022/03/16 06:51:06;;;;;;;2.07;1.73;;;18.70;37.30;;;;;;4978317;28;20311;-64
2022/03/16 06:53:32;;;;;;;3.37;2.20;;;18.70;37.30;;;;;;4976795;28;20220;-66
2022/03/16 06:55:57;;;;;;;4.43;2.40;;;18.70;37.30;;;;;;4977285;28;20460;-65
2022/03/16 06:58:23;;;;;;;2.77;2.10;;;18.70;37.30;;;;;;4977731;28;20223;-68
2022/03/16 07:00:49;;;;;;;2.40;1.70;;;18.70;37.30;;;;;;4981551;28;20236;-65
2022/03/16 07:03:14;;;;;;;2.43;2.23;;;18.70;37.30;;;;;;4978597;28;20217;-65
2022/03/16 07:05:41;;;;;;;2.37;2.00;;;18.70;37.30;;;;;;4983162;28;20705;-66
2022/03/16 07:08:09;;;;;;;2.17;2.00;;;18.70;37.30;;;;;;4979263;28;20217;-64
2022/03/16 07:10:37;;;;;;;3.93;2.10;;;18.70;37.30;;;;;;4978243;28;20446;-64
2022/03/16 07:13:03;;;;;;;4.00;1.70;;;18.70;37.30;;;;;;4979885;28;20463;-66
2022/03/16 07:15:30;;;;;;;1.83;1.73;;;18.70;37.30;;;;;;4977328;28;20458;-70
2022/03/16 07:17:56;;;;;;;1.93;1.83;;;18.70;37.20;;;;;;4974154;28;20425;-64
2022/03/16 07:20:22;;;;;;;2.63;2.03;;;18.70;37.20;;;;;;4977213;28;20540;-67
2022/03/16 07:23:06;;;;;;;1.90;1.70;;;18.70;37.20;;;;;;4978790;28;20451;-61
2022/03/16 07:25:33;;;;;;;3.93;1.80;;;18.70;37.30;;;;;;4978014;28;20247;-63
2022/03/16 07:27:58;;;;;;;3.00;1.70;;;18.70;37.20;;;;;;4981624;28;20470;-63
2022/03/16 07:30:24;;;;;;;2.03;1.80;;;18.70;37.20;;;;;;4978524;28;23848;-63
2022/03/16 07:32:50;;;;;;;1.70;1.60;;;18.70;37.10;;;;;;4976851;28;20223;-67
2022/03/16 07:35:16;;;;;;;1.83;1.73;;;18.70;37.20;;;;;;4977988;28;20256;-65
2022/03/16 07:37:47;;;;;;;4.30;1.50;;;18.70;37.10;;;;;;4980169;28;20236;-64
2022/03/16 07:40:13;;;;;;;2.07;1.87;;;18.70;37.20;;;;;;4978434;28;20272;-63
2022/03/16 07:42:43;;;;;;;1.53;1.43;;;18.70;37.10;;;;;;4980801;28;20421;-63
2022/03/16 07:45:10;;;;;;;2.23;2.10;;;18.70;37.10;;;;;;4977455;28;20229;-62
2022/03/16 07:47:35;;;;;;;1.90;1.80;;;18.70;37.10;;;;;;4978815;28;20466;-63
2022/03/16 07:50:01;;;;;;;1.70;1.60;;;18.70;37.10;;;;;;4978200;28;20450;-63
2022/03/16 07:52:27;;;;;;;3.10;1.87;;;18.70;37.10;;;;;;4977793;28;20697;-62
2022/03/16 07:54:52;;;;;;;1.73;1.63;;;18.70;37.10;;;;;;4974303;28;20240;-63
2022/03/16 07:57:18;;;;;;;2.00;1.80;;;18.70;37.20;;;;;;4975243;28;20229;-63
2022/03/16 07:59:44;;;;;;;1.70;1.60;;;18.70;37.10;;;;;;4980968;28;20241;-64
2022/03/16 08:02:14;;;;;;;2.70;1.90;;;18.70;37.10;;;;;;4980058;28;20267;-64
2022/03/16 08:04:39;;;;;;;2.93;2.00;;;18.80;37.20;;;;;;4982302;28;20549;-63
2022/03/16 08:07:05;;;;;;;4.93;1.60;;;18.70;37.20;;;;;;4979775;28;20542;-63
2022/03/16 08:09:31;;;;;;;1.70;1.60;;;18.70;37.20;;;;;;4981072;28;20312;-63
2022/03/16 08:11:57;;;;;;;1.70;1.60;;;18.70;37.20;;;;;;4980455;28;20565;-63
2022/03/16 08:14:22;;;;;;;1.73;1.63;;;18.70;37.10;;;;;;4976567;28;20256;-63
2022/03/16 08:16:48;;;;;;;1.70;1.60;;;18.70;37.10;;;;;;4982097;28;20248;-64
2022/03/16 08:19:15;;;;;;;1.93;1.50;;;18.70;37.20;;;;;;4981650;28;20217;-63
2022/03/16 08:21:40;;;;;;;1.60;1.50;;;18.70;37.20;;;;;;4985411;28;20388;-63
2022/03/16 08:24:06;;;;;;;2.17;1.97;;;18.70;37.10;;;;;;4978877;28;20509;-63
2022/03/16 08:26:31;;;;;;;2.03;1.93;;;18.70;37.10;;;;;;4979756;28;20228;-60
2022/03/16 08:28:57;;;;;;;1.60;1.50;;;18.80;37.20;;;;;;4981553;28;20279;-63
2022/03/16 08:31:23;;;;;;;1.60;1.50;;;18.80;37.30;;;;;;4977343;28;20307;-63
2022/03/16 08:33:48;;;;;;;2.00;1.53;;;18.80;37.20;;;;;;4975418;28;20248;-63
2022/03/16 08:36:14;;;;;;;1.40;1.30;;;18.70;37.10;;;;;;4983478;28;20216;-63
2022/03/16 08:38:41;;;;;;;2.57;1.57;;;18.70;37.10;;;;;;4980756;28;20260;-63
2022/03/16 08:41:08;;;;;;;1.80;1.70;;;18.80;37.30;;;;;;4978573;28;20324;-64
2022/03/16 08:43:34;;;;;;;2.20;2.00;;;18.80;37.20;;;;;;4982686;28;20878;-63
2022/03/16 08:46:00;;;;;;;1.70;1.60;;;18.70;37.10;;;;;;4979622;28;20449;-63
2022/03/16 08:48:26;;;;;;;1.40;1.30;;;18.70;37.10;;;;;;4980476;28;20438;-63
2022/03/16 08:50:52;;;;;;;2.67;1.80;;;18.80;37.20;;;;;;4975277;28;20466;-63
2022/03/16 08:53:18;;;;;;;1.70;1.60;;;18.80;37.20;;;;;;4981242;28;20454;-63
2022/03/16 08:55:44;;;;;;;1.90;1.80;;;18.80;37.20;;;;;;4944147;28;1045237;-63
2022/03/16 08:58:09;;;;;;;3.00;1.50;;;18.80;37.20;;;;;;4984085;28;20224;-63
2022/03/16 09:00:37;;;;;;;2.20;1.63;;;18.80;37.20;;;;;;4983417;28;20280;-62
2022/03/16 09:03:03;;;;;;;2.90;1.60;;;18.80;37.20;;;;;;4979233;28;20224;-63
2022/03/16 09:05:29;;;;;;;3.10;2.10;;;18.80;37.30;;;;;;4981932;28;20442;-63
2022/03/16 09:07:54;;;;;;;8.40;1.80;;;18.80;37.20;;;;;;4976628;28;20512;-64
2022/03/16 09:10:20;;;;;;;2.03;1.77;;;18.80;37.20;;;;;;4981220;28;20546;-63
2022/03/16 09:12:46;;;;;;;2.97;1.80;;;18.80;37.20;;;;;;4978948;28;21266;-63
2022/03/16 09:15:12;;;;;;;4.73;1.60;;;18.80;37.20;;;;;;4980074;28;20463;-63
2022/03/16 09:17:37;;;;;;;3.37;1.70;;;18.80;37.20;;;;;;4978812;28;20228;-64
2022/03/16 09:20:04;;;;;;;2.73;1.80;;;18.80;37.30;;;;;;4979651;28;20828;-63
2022/03/16 09:22:30;;;;;;;7.27;2.33;;;18.80;37.30;;;;;;4981766;28;20241;-63
2022/03/16 09:24:56;;;;;;;4.13;1.83;;;18.80;37.20;;;;;;4981592;28;20518;-64
2022/03/16 09:27:22;;;;;;;2.47;1.93;;;18.80;37.30;;;;;;4981515;28;20228;-64
2022/03/16 09:29:48;;;;;;;3.13;1.90;;;18.80;37.40;;;;;;4980285;28;20422;-64
2022/03/16 09:32:14;;;;;;;1.67;1.57;;;18.80;37.30;;;;;;4978343;28;20470;-63
2022/03/16 09:34:40;;;;;;;5.50;1.70;;;18.80;37.40;;;;;;4982313;28;20692;-64
2022/03/16 09:37:06;;;;;;;2.63;1.80;;;18.80;37.40;;;;;;4975395;28;20670;-64
2022/03/16 09:39:33;;;;;;;2.80;1.80;;;18.80;37.40;;;;;;4979628;28;21018;-63
2022/03/16 09:41:59;;;;;;;1.80;1.70;;;18.80;37.40;;;;;;4979254;28;20906;-63
2022/03/16 09:44:28;;;;;;;1.80;1.70;;;18.80;37.50;;;;;;4978178;28;20455;-63
2022/03/16 09:46:54;;;;;;;2.23;2.03;;;18.80;37.40;;;;;;4978790;28;20437;-64
2022/03/16 09:49:20;;;;;;;4.57;1.70;;;18.80;37.40;;;;;;4977994;28;20552;-63
2022/03/16 09:51:46;;;;;;;5.90;2.00;;;18.80;37.40;;;;;;4980997;28;20229;-64
2022/03/16 09:54:12;;;;;;;1.83;1.57;;;18.80;37.50;;;;;;4980863;28;20243;-64
2022/03/16 09:56:38;;;;;;;2.57;2.00;;;18.80;37.50;;;;;;4985081;28;20447;-63
2022/03/16 09:59:04;;;;;;;3.00;1.90;;;18.80;37.50;;;;;;4982116;28;20229;-64
2022/03/16 10:01:30;;;;;;;2.30;1.50;;;18.70;38.20;;;;;;4980017;28;21027;-65
2022/03/16 10:04:05;;;;;;;2.20;1.60;;;18.80;37.50;;;;;;4981023;28;20225;-65
2022/03/16 10:06:31;;;;;;;1.60;1.50;;;18.80;37.50;;;;;;4979647;28;20231;-65
2022/03/16 10:14:25;;;;;;;2.33;1.60;;;18.80;37.50;;;;;;4982845;28;20475;-64
2022/03/16 10:19:50;;;;;;;2.83;1.77;;;18.70;37.50;;;;;;4998426;28;20662;-64
2022/03/16 10:22:25;;;;;;;2.00;1.80;;;18.70;37.50;;;;;;4996446;28;20506;-64
2022/03/16 10:24:54;;;;;;;1.50;1.40;;;18.70;37.50;;;;;;4996117;28;20490;-64
2022/03/16 10:27:20;;;;;;;2.60;1.60;;;18.70;37.60;;;;;;4999495;28;20462;-63
2022/03/16 10:29:46;;;;;;;1.60;1.50;;;18.70;37.60;;;;;;4994774;28;20431;-64
2022/03/16 10:32:12;;;;;;;2.43;2.23;;;18.80;37.60;;;;;;4996636;28;20458;-64
2022/03/16 10:34:52;;;;;;;1.77;1.67;;;18.80;37.60;;;;;;4998511;28;20444;-64
2022/03/16 10:37:20;;;;;;;1.60;1.40;;;18.80;37.60;;;;;;5000869;28;20224;-63
2022/03/16 10:39:49;;;;;;;2.30;1.77;;;18.70;37.60;;;;;;5001594;28;20425;-63
2022/03/16 10:48:22;;;;;;;2.53;1.80;;;18.70;37.60;;;;;;4996867;28;20996;-63
2022/03/16 10:50:50;;;;;;;1.73;1.63;;;18.70;37.60;;;;;;4995946;28;20540;-64
2022/03/16 10:53:18;;;;;;;1.83;1.73;;;18.70;37.60;;;;;;4999100;28;20789;-64
2022/03/16 10:55:45;;;;;;;1.80;1.70;;;18.70;37.60;;;;;;5001204;28;20537;-64
2022/03/16 10:58:12;;;;;;;2.13;1.50;;;18.70;37.60;;;;;;4997301;28;20501;-64
2022/03/16 11:00:41;;;;;;;1.67;1.57;;;18.80;37.70;;;;;;5000173;28;20469;-63
2022/03/16 11:03:09;;;;;;;1.63;1.53;;;18.70;37.60;;;;;;4997588;28;20880;-63
2022/03/16 11:05:38;;;;;;;2.10;2.00;;;18.70;37.70;;;;;;4998130;28;20481;-64
2022/03/16 11:08:07;;;;;;;2.07;1.97;;;18.70;37.70;;;;;;4999625;28;20532;-63
2022/03/16 11:10:36;;;;;;;1.60;1.50;;;18.70;37.70;;;;;;4995880;28;20462;-62
2022/03/16 11:15:51;;;;;;;1.70;1.60;;;18.70;37.70;;;;;;4996611;28;20535;-63
2022/03/16 11:18:20;;;;;;;1.33;1.23;;;18.70;37.70;;;;;;4998145;28;20485;-63
2022/03/16 11:20:56;;;;;;;1.63;1.50;;;18.70;37.70;;;;;;4998586;28;20475;-63
2022/03/16 11:26:15;;;;;;;2.10;1.60;;;18.70;37.70;;;;;;4995229;28;20944;-64
2022/03/16 11:28:55;;;;;;;1.63;1.53;;;18.70;37.70;;;;;;5002812;28;20462;-67
2022/03/16 11:31:28;;;;;;;1.57;1.47;;;18.70;37.70;;;;;;4997667;28;20507;-63
2022/03/16 11:33:54;;;;;;;2.07;1.80;;;18.70;37.70;;;;;;5003327;28;20462;-65
2022/03/16 11:36:32;;;;;;;1.60;1.50;;;18.70;37.70;;;;;;5000911;28;20454;-63
2022/03/16 11:39:01;;;;;;;1.80;1.57;;;18.80;37.70;;;;;;5000552;28;20429;-63
2022/03/16 11:41:32;;;;;;;1.50;1.40;;;18.80;37.70;;;;;;5001349;28;20575;-65
2022/03/16 11:44:26;;;;;;;1.50;1.40;;;18.80;37.70;;;;;;4998608;28;20429;-63
2022/03/16 11:46:53;;;;;;;1.93;1.50;;;18.80;37.70;;;;;;4991168;28;20479;-63
2022/03/16 11:49:29;;;;;;;2.10;2.00;;;18.80;37.70;;;;;;5005272;28;20508;-64
2022/03/16 11:52:03;;;;;;;1.80;1.70;;;18.80;37.70;;;;;;5004234;28;20421;-64
2022/03/16 11:54:40;;;;;;;2.00;1.90;;;18.80;37.70;;;;;;5003370;28;20456;-64
2022/03/16 11:57:06;;;;;;;1.53;1.43;;;18.80;37.70;;;;;;5005192;28;20815;-63
2022/03/16 11:59:40;;;;;;;1.60;1.50;;;18.80;37.80;;;;;;5004460;28;20519;-63
2022/03/16 12:02:20;;;;;;;1.60;1.50;;;18.80;37.80;;;;;;5002783;28;20807;-64
2022/03/16 12:04:47;;;;;;;1.83;1.60;;;18.80;37.80;;;;;;5005221;28;20444;-64
2022/03/16 12:07:21;;;;;;;3.03;1.47;;;18.80;37.80;;;;;;5012721;28;20439;-63
2022/03/16 12:09:55;;;;;;;1.90;1.40;;;18.80;37.80;;;;;;5008637;28;20458;-64
2022/03/16 12:15:19;;;;;;;2.10;1.90;;;18.80;37.80;;;;;;4983857;28;20461;-63
2022/03/16 12:17:56;;;;;;;1.67;1.57;;;18.80;37.90;;;;;;4980958;28;20470;-64
2022/03/16 12:20:26;;;;;;;1.77;1.40;;;18.80;38.00;;;;;;4979663;28;20967;-64
2022/03/16 12:23:00;;;;;;;1.50;1.40;;;18.80;38.00;;;;;;4976136;28;20491;-63
2022/03/16 12:25:29;;;;;;;1.60;1.50;;;18.80;38.10;;;;;;4977432;28;20456;-63
2022/03/16 12:30:59;;;;;;;1.90;1.70;;;18.80;38.80;;;;;;4981562;28;20452;-62
2022/03/16 12:33:33;;;;;;;1.60;1.50;;;18.80;38.10;;;;;;4978559;28;20463;-63
2022/03/16 12:36:07;;;;;;;1.43;1.33;;;18.80;38.20;;;;;;4979221;28;20453;-63
2022/03/16 12:38:35;;;;;;;1.50;1.40;;;18.80;38.10;;;;;;4981208;28;20458;-62
2022/03/16 12:43:52;;;;;;;2.33;1.63;;;18.80;38.20;;;;;;4982104;28;20532;-64
2022/03/16 12:46:33;;;;;;;1.80;1.70;;;18.80;38.20;;;;;;4980572;28;20489;-63
2022/03/16 12:49:11;;;;;;;1.70;1.60;;;18.80;38.20;;;;;;4980683;28;20450;-64
2022/03/16 12:51:43;;;;;;;1.63;1.53;;;18.80;38.20;;;;;;4979601;28;20447;-64
2022/03/16 12:54:10;;;;;;;2.80;1.70;;;18.80;38.20;;;;;;4979038;28;20483;-64
2022/03/16 12:56:46;;;;;;;1.50;1.40;;;18.80;38.20;;;;;;4976954;28;20429;-64
2022/03/16 12:59:12;;;;;;;1.50;1.40;;;18.80;38.20;;;;;;4976683;28;20918;-64
2022/03/16 13:01:38;;;;;;;1.67;1.57;;;18.80;38.20;;;;;;4975908;28;20463;-63
2022/03/16 13:04:10;;;;;;;1.70;1.60;;;18.70;38.10;;;;;;4983126;28;20219;-65
2022/03/16 13:06:35;;;;;;;1.30;1.20;;;18.80;38.20;;;;;;4982463;28;20813;-65
2022/03/16 13:09:06;;;;;;;1.60;1.50;;;18.80;38.20;;;;;;4980734;28;20465;-65
2022/03/16 13:11:33;;;;;;;1.40;1.30;;;18.80;38.90;;;;;;4978727;28;20233;-63
2022/03/16 13:14:02;;;;;;;1.73;1.63;;;18.80;38.20;;;;;;4978698;28;20501;-64
2022/03/16 13:16:47;;;;;;;1.70;1.60;;;18.80;38.20;;;;;;4978480;28;20430;-64